Terminal Aerodrome Forecast
Issued by NWS

Home | Current Version | Previous Version | Graphics & Text | Print | Product List | Glossary On
Versions: 1 2 3 4 5 6 7 8 9 10 11 12
000
FTUS43 KICT 040520
TAFSLN
TAF
KSLN 040520Z 0406/0506 25007KT P6SM SKC
     FM041200 35012KT P6SM SKC
     FM041600 36012G20KT P6SM SKC
     FM050000 02010KT P6SM SKC
     FM050300 VRB05KT P6SM SKC=

USA.gov is the U.S. government's official web portal to all federal, state and local government web resources and services.